createdAt,value
2022-11-10T00:00:31.792Z,44.15
2022-11-10T00:02:33.256Z,41.45
2022-11-10T00:04:34.736Z,48.78
2022-11-10T00:06:36.472Z,41.60
2022-11-10T00:08:38.212Z,35.05
2022-11-10T00:10:57.111Z,38.55
2022-11-10T00:13:02.874Z,41.17
2022-11-10T00:15:23.850Z,44.08
2022-11-10T00:17:25.376Z,37.90
2022-11-10T00:19:28.184Z,106.18
2022-11-10T00:21:29.699Z,37.35
2022-11-10T00:23:31.196Z,59.88
2022-11-10T00:25:32.995Z,60.13
2022-11-10T00:27:34.940Z,47.38
2022-11-10T00:29:36.415Z,51.10
2022-11-10T00:31:38.999Z,50.72
2022-11-10T00:33:44.453Z,47.17
2022-11-10T00:35:45.938Z,152.90
2022-11-10T00:37:49.395Z,37.38
2022-11-10T00:39:51.110Z,65.13
2022-11-10T00:41:52.687Z,42.53
2022-11-10T00:43:54.172Z,45.15
2022-11-10T00:45:55.685Z,46.90
2022-11-10T00:47:57.130Z,45.80
2022-11-10T00:49:58.687Z,38.42
2022-11-10T00:52:00.162Z,44.22
2022-11-10T00:54:01.713Z,42.25
2022-11-10T00:56:03.192Z,36.63
2022-11-10T00:58:05.027Z,40.28
2022-11-10T01:00:07.270Z,46.45
2022-11-10T01:02:08.717Z,47.08
2022-11-10T01:04:10.338Z,42.63
2022-11-10T01:06:14.559Z,42.60
2022-11-10T01:08:15.992Z,44.20
2022-11-10T01:10:17.596Z,42.13
2022-11-10T01:12:19.095Z,36.05
2022-11-10T01:14:20.576Z,38.60
2022-11-10T01:16:28.218Z,48.22
2022-11-10T01:18:29.701Z,38.33
2022-11-10T01:20:33.310Z,66.55
2022-11-10T01:22:35.447Z,39.58
2022-11-10T01:24:37.005Z,36.70
2022-11-10T01:26:38.485Z,38.03
2022-11-10T01:28:40.358Z,36.58
2022-11-10T01:30:41.993Z,34.55
2022-11-10T01:32:43.703Z,43.85
2022-11-10T01:34:45.191Z,34.20
2022-11-10T01:36:46.724Z,33.40
2022-11-10T01:38:48.204Z,31.98
2022-11-10T01:40:49.875Z,32.97
2022-11-10T01:42:54.547Z,44.67
2022-11-10T01:45:23.955Z,35.15
2022-11-10T01:47:25.799Z,34.92
2022-11-10T01:49:32.296Z,39.85
2022-11-10T01:51:56.645Z,35.67
2022-11-10T01:54:11.905Z,33.25
2022-11-10T01:56:15.178Z,67.53
2022-11-10T01:58:21.619Z,41.00
2022-11-10T02:00:23.760Z,42.05
2022-11-10T02:02:30.604Z,32.53
2022-11-10T02:04:33.059Z,59.58
2022-11-10T02:06:38.562Z,33.20
2022-11-10T02:08:42.216Z,30.50
2022-11-10T02:10:44.463Z,34.65
2022-11-10T02:12:47.364Z,32.22
2022-11-10T02:14:48.827Z,31.55
2022-11-10T02:16:50.418Z,29.77
2022-11-10T02:18:52.443Z,28.55
2022-11-10T02:20:54.159Z,28.83
2022-11-10T02:22:55.697Z,28.40
2022-11-10T02:24:58.181Z,29.23
2022-11-10T02:26:59.828Z,28.15
2022-11-10T02:29:01.371Z,28.50
2022-11-10T02:31:03.846Z,28.80
2022-11-10T02:33:05.355Z,28.38
2022-11-10T02:35:07.610Z,28.13
2022-11-10T02:37:12.291Z,27.77
2022-11-10T02:39:13.766Z,28.70
2022-11-10T02:41:15.285Z,28.20
2022-11-10T02:43:18.701Z,27.83
2022-11-10T02:45:20.366Z,28.30
2022-11-10T02:47:21.908Z,27.27
2022-11-10T02:49:23.486Z,29.30
2022-11-10T02:51:25.083Z,27.17
2022-11-10T02:53:26.649Z,28.65
2022-11-10T02:55:28.297Z,28.50
2022-11-10T02:57:29.743Z,27.65
2022-11-10T02:59:31.228Z,26.92
2022-11-10T03:01:32.917Z,26.15
2022-11-10T03:03:34.837Z,25.90
2022-11-10T03:05:36.368Z,26.48
2022-11-10T03:07:38.140Z,26.90
2022-11-10T03:09:39.626Z,27.80
2022-11-10T03:11:41.184Z,26.20
2022-11-10T03:14:00.501Z,26.45
2022-11-10T03:16:02.777Z,25.88
2022-11-10T03:18:05.003Z,26.80
2022-11-10T03:20:06.956Z,26.38
2022-11-10T03:22:08.444Z,26.98
2022-11-10T03:24:10.155Z,26.35
2022-11-10T03:26:11.657Z,26.35
2022-11-10T03:28:13.786Z,26.75
2022-11-10T03:30:15.327Z,26.90
2022-11-10T03:32:16.878Z,25.42
2022-11-10T03:34:18.743Z,27.75
2022-11-10T03:36:20.277Z,26.73
2022-11-10T03:38:21.823Z,27.55
2022-11-10T03:40:23.295Z,25.83
2022-11-10T03:42:24.754Z,28.20
2022-11-10T03:44:26.287Z,26.35
2022-11-10T03:46:27.779Z,26.63
2022-11-10T03:48:29.267Z,29.05
2022-11-10T03:50:30.754Z,27.65
2022-11-10T03:52:33.182Z,28.67
2022-11-10T03:54:34.655Z,28.08
2022-11-10T03:56:36.123Z,27.45
2022-11-10T03:58:37.912Z,27.23
2022-11-10T04:00:39.419Z,26.35
2022-11-10T04:02:40.956Z,29.25
2022-11-10T04:05:00.830Z,27.08
2022-11-10T04:09:22.344Z,26.20
2022-11-10T04:11:44.151Z,25.30
2022-11-10T04:14:04.047Z,26.85
2022-11-10T04:18:21.769Z,26.58
2022-11-10T04:20:23.221Z,26.15
2022-11-10T04:22:43.044Z,26.33
2022-11-10T04:26:47.530Z,26.08
2022-11-10T04:28:52.058Z,25.90
2022-11-10T04:30:53.556Z,26.48
2022-11-10T04:32:55.123Z,27.45
2022-11-10T04:34:59.235Z,27.67
2022-11-10T04:37:00.698Z,27.88
2022-11-10T04:39:02.565Z,25.55
2022-11-10T04:41:04.211Z,26.65
2022-11-10T04:43:05.741Z,26.38
2022-11-10T04:45:07.459Z,26.33
2022-11-10T04:47:11.832Z,26.02
2022-11-10T04:49:13.823Z,27.00
2022-11-10T04:51:15.780Z,50.90
2022-11-10T04:53:17.640Z,90.18
2022-11-10T04:55:19.149Z,86.15
2022-11-10T04:57:20.619Z,81.10
2022-11-10T04:59:22.181Z,63.35
2022-11-10T05:01:26.416Z,51.53
2022-11-10T05:03:27.982Z,39.60
2022-11-10T05:05:29.663Z,34.75
2022-11-10T05:07:31.171Z,31.75
2022-11-10T05:09:32.916Z,33.75
2022-11-10T05:11:34.404Z,31.98
2022-11-10T05:13:35.857Z,31.98
2022-11-10T05:15:40.046Z,33.55
2022-11-10T05:17:41.512Z,34.20
2022-11-10T05:19:42.964Z,31.98
2022-11-10T05:21:44.468Z,32.08
2022-11-10T05:23:46.635Z,40.45
2022-11-10T05:25:48.708Z,45.83
2022-11-10T05:27:50.175Z,49.83
2022-11-10T05:29:51.630Z,41.45
2022-11-10T05:31:53.131Z,39.60
2022-11-10T05:33:54.646Z,43.22
2022-11-10T05:35:56.547Z,45.83
2022-11-10T05:37:58.228Z,44.08
2022-11-10T05:39:59.747Z,37.63
2022-11-10T05:42:01.249Z,38.42
2022-11-10T05:44:02.730Z,42.67
2022-11-10T05:46:04.334Z,41.47
2022-11-10T05:48:06.024Z,46.40
2022-11-10T05:50:08.825Z,45.25
2022-11-10T05:52:10.355Z,47.40
2022-11-10T05:54:11.875Z,51.63
2022-11-10T05:56:13.347Z,50.17
2022-11-10T05:58:15.191Z,47.38
2022-11-10T06:00:21.365Z,52.00
2022-11-10T06:02:22.879Z,50.42
2022-11-10T06:04:24.659Z,46.85
2022-11-10T06:06:26.142Z,46.17
2022-11-10T06:08:27.637Z,45.22
2022-11-10T06:10:29.447Z,48.75
2022-11-10T06:12:30.965Z,44.42
2022-11-10T06:14:32.501Z,45.75
2022-11-10T06:16:33.971Z,46.60
2022-11-10T06:18:35.431Z,45.35
2022-11-10T06:20:36.964Z,45.97
2022-11-10T06:22:38.677Z,49.75
2022-11-10T06:24:40.147Z,48.45
2022-11-10T06:26:41.684Z,46.80
2022-11-10T06:28:43.258Z,48.97
2022-11-10T06:30:44.783Z,45.95
2022-11-10T06:32:46.429Z,45.13
2022-11-10T06:34:47.888Z,42.40
2022-11-10T06:36:49.375Z,42.40
2022-11-10T06:38:50.977Z,42.97
2022-11-10T06:40:52.447Z,43.38
2022-11-10T06:42:54.018Z,41.63
2022-11-10T06:44:55.695Z,45.72
2022-11-10T06:46:57.175Z,45.10
2022-11-10T06:48:58.651Z,47.85
2022-11-10T06:51:01.123Z,49.30
2022-11-10T06:53:02.743Z,44.65
2022-11-10T06:55:04.663Z,44.38
2022-11-10T06:57:06.247Z,44.13
2022-11-10T06:59:07.707Z,44.50
2022-11-10T07:01:09.293Z,47.53
2022-11-10T07:03:13.484Z,47.17
2022-11-10T07:05:15.513Z,42.97
2022-11-10T07:07:17.169Z,43.92
2022-11-10T07:09:18.880Z,43.80
2022-11-10T07:11:20.404Z,45.00
2022-11-10T07:13:23.247Z,47.25
2022-11-10T07:15:25.046Z,51.22
2022-11-10T07:17:26.596Z,47.72
2022-11-10T07:19:28.103Z,45.17
2022-11-10T07:21:29.849Z,47.55
2022-11-10T07:23:33.580Z,48.28
2022-11-10T07:25:36.771Z,47.50
2022-11-10T07:27:38.335Z,50.65
2022-11-10T07:29:40.127Z,52.05
2022-11-10T07:31:41.597Z,51.08
2022-11-10T07:33:44.114Z,49.83
2022-11-10T07:35:53.051Z,63.92
2022-11-10T07:37:55.668Z,34.60
2022-11-10T07:39:57.247Z,45.75
2022-11-10T07:41:58.730Z,41.72
2022-11-10T07:44:00.215Z,42.05
2022-11-10T07:46:01.653Z,42.40
2022-11-10T07:48:05.681Z,42.13
2022-11-10T07:50:07.779Z,41.63
2022-11-10T07:52:09.260Z,42.95
2022-11-10T07:54:10.839Z,43.83
2022-11-10T07:56:12.377Z,46.35
2022-11-10T07:58:16.230Z,44.28
2022-11-10T08:00:18.372Z,47.05
2022-11-10T08:02:19.833Z,48.30
2022-11-10T08:04:21.281Z,47.33
2022-11-10T08:06:23.089Z,43.83
2022-11-10T08:08:24.755Z,40.80
2022-11-10T08:10:27.710Z,45.08
2022-11-10T08:12:32.711Z,45.53
2022-11-10T08:14:35.267Z,42.67
2022-11-10T08:16:36.750Z,48.70
2022-11-10T08:18:38.221Z,51.22
2022-11-10T08:20:39.724Z,42.38
2022-11-10T08:22:42.888Z,43.75
2022-11-10T08:24:44.524Z,42.08
2022-11-10T08:26:46.286Z,44.80
2022-11-10T08:28:48.091Z,57.45
2022-11-10T08:30:49.956Z,40.47
2022-11-10T08:32:54.399Z,43.67
2022-11-10T08:34:55.958Z,40.17
2022-11-10T08:36:57.489Z,40.28
2022-11-10T08:38:58.972Z,38.53
2022-11-10T08:41:00.467Z,38.00
2022-11-10T08:43:03.498Z,39.65
2022-11-10T08:45:05.402Z,42.40
2022-11-10T08:47:06.916Z,41.08
2022-11-10T08:49:08.426Z,40.35
2022-11-10T08:51:10.004Z,39.53
2022-11-10T08:53:14.620Z,37.70
2022-11-10T08:55:16.207Z,36.50
2022-11-10T08:57:17.679Z,38.95
2022-11-10T08:59:19.192Z,34.40
2022-11-10T09:01:21.298Z,37.85
2022-11-10T09:03:24.951Z,40.92
2022-11-10T09:05:26.699Z,35.17
2022-11-10T09:07:28.214Z,31.73
2022-11-10T09:09:29.725Z,34.47
2022-11-10T09:11:31.277Z,31.40
2022-11-10T09:13:33.020Z,30.45
2022-11-10T09:15:35.588Z,30.13
2022-11-10T09:17:38.184Z,29.30
2022-11-10T09:19:39.797Z,30.52
2022-11-10T09:21:41.332Z,31.40
2022-11-10T09:23:42.848Z,29.55
2022-11-10T09:25:52.447Z,29.77
2022-11-10T09:27:53.941Z,30.92
2022-11-10T09:29:55.551Z,31.67
2022-11-10T09:31:57.028Z,29.27
2022-11-10T09:33:59.321Z,25.63
2022-11-10T09:36:02.138Z,24.10
2022-11-10T09:38:03.768Z,24.35
2022-11-10T09:40:08.136Z,24.58
2022-11-10T09:42:27.706Z,28.38
2022-11-10T09:44:55.067Z,27.80
2022-11-10T09:49:57.629Z,24.48
2022-11-10T09:52:00.395Z,29.27
2022-11-10T09:54:19.886Z,26.02
2022-11-10T09:56:35.513Z,23.23
2022-11-10T09:58:45.808Z,22.65
2022-11-10T10:01:03.964Z,20.38
2022-11-10T10:03:06.306Z,20.33
2022-11-10T10:05:35.636Z,23.02
2022-11-10T10:07:45.088Z,21.13
2022-11-10T10:10:02.537Z,20.48
2022-11-10T10:12:18.242Z,22.15
2022-11-10T10:14:25.537Z,23.95
2022-11-10T10:16:44.754Z,22.80
2022-11-10T10:19:11.087Z,22.85
2022-11-10T10:21:27.899Z,23.60
2022-11-10T10:24:07.797Z,23.13
2022-11-10T10:26:00.783Z,29.00
2022-11-10T10:28:30.520Z,26.92
2022-11-10T10:30:32.075Z,21.95
2022-11-10T10:32:33.566Z,22.65
2022-11-10T10:34:36.234Z,21.00
2022-11-10T10:36:38.304Z,23.60
2022-11-10T10:38:40.456Z,29.75
2022-11-10T10:40:50.524Z,48.50
2022-11-10T10:42:52.088Z,46.10
2022-11-10T10:45:21.175Z,26.42
2022-11-10T10:47:36.541Z,21.63
2022-11-10T10:49:37.997Z,20.65
2022-11-10T10:51:39.524Z,18.48
2022-11-10T10:53:48.171Z,20.23
2022-11-10T10:56:05.435Z,25.15
2022-11-10T10:58:31.501Z,23.13
2022-11-10T11:00:43.277Z,20.65
2022-11-10T11:03:04.499Z,22.92
2022-11-10T11:05:09.628Z,24.92
2022-11-10T11:07:23.715Z,25.60
2022-11-10T11:09:27.918Z,21.58
2022-11-10T11:11:35.556Z,24.05
2022-11-10T11:13:37.278Z,19.10
2022-11-10T11:15:38.739Z,21.15
2022-11-10T11:17:40.353Z,23.63
2022-11-10T11:19:42.273Z,22.95
2022-11-10T11:22:13.067Z,24.42
2022-11-10T11:24:51.364Z,18.77
2022-11-10T11:27:04.469Z,21.38
2022-11-10T11:29:05.916Z,19.63
2022-11-10T11:31:42.709Z,18.35
2022-11-10T11:34:10.970Z,20.35
2022-11-10T11:36:20.948Z,22.75
2022-11-10T11:40:58.096Z,17.90
2022-11-10T11:43:27.144Z,21.73
2022-11-10T11:45:39.439Z,19.00
2022-11-10T11:48:01.375Z,20.50
2022-11-10T11:50:22.403Z,19.63
2022-11-10T11:52:39.313Z,16.60
2022-11-10T11:55:22.505Z,17.92
2022-11-10T11:57:42.557Z,15.50
2022-11-10T12:00:08.188Z,14.45
2022-11-10T12:02:30.423Z,13.73
2022-11-10T12:04:42.877Z,12.10
2022-11-10T12:07:26.986Z,12.88
2022-11-10T12:09:50.472Z,13.85
2022-11-10T12:12:07.123Z,11.25
2022-11-10T12:14:34.323Z,12.85
2022-11-10T12:16:36.787Z,13.77
2022-11-10T12:18:49.515Z,11.30
2022-11-10T12:21:19.832Z,9.27
2022-11-10T12:25:40.460Z,9.45
2022-11-10T12:27:49.461Z,10.55
2022-11-10T12:29:56.964Z,10.37
2022-11-10T12:32:27.592Z,9.18
2022-11-10T12:34:42.779Z,10.00
2022-11-10T12:36:45.879Z,9.02
2022-11-10T12:38:47.460Z,9.85
2022-11-10T12:40:51.912Z,14.10
2022-11-10T12:43:02.056Z,10.13
2022-11-10T12:45:16.410Z,8.38
2022-11-10T12:47:21.767Z,8.35
2022-11-10T12:49:32.529Z,7.90
2022-11-10T12:52:21.416Z,7.70
2022-11-10T12:54:26.264Z,7.05
2022-11-10T12:56:40.729Z,6.38
2022-11-10T12:58:42.306Z,7.15
2022-11-10T13:00:59.445Z,6.03
2022-11-10T13:03:01.068Z,5.18
2022-11-10T13:05:19.533Z,5.72
2022-11-10T13:07:24.537Z,6.00
2022-11-10T13:09:41.688Z,6.18
2022-11-10T13:12:05.267Z,5.80
2022-11-10T13:14:22.573Z,6.40
2022-11-10T13:16:40.398Z,5.97
2022-11-10T13:18:41.803Z,5.53
2022-11-10T13:20:54.035Z,6.35
2022-11-10T13:22:55.556Z,5.60
2022-11-10T13:25:34.472Z,5.35
2022-11-10T13:27:35.972Z,3.63
2022-11-10T13:29:43.526Z,5.72
2022-11-10T13:31:54.531Z,5.25
2022-11-10T13:34:32.887Z,4.43
2022-11-10T13:36:39.311Z,4.07
2022-11-10T13:38:42.848Z,4.18
2022-11-10T13:40:44.776Z,3.58
2022-11-10T13:42:58.461Z,3.60
2022-11-10T13:45:27.945Z,3.75
2022-11-10T13:47:45.008Z,6.43
2022-11-10T13:49:57.041Z,4.50
2022-11-10T13:52:28.814Z,4.00
2022-11-10T13:54:36.407Z,4.25
2022-11-10T13:57:08.759Z,4.80
2022-11-10T13:59:22.647Z,4.65
2022-11-10T14:01:28.151Z,4.63
2022-11-10T14:03:48.097Z,5.20
2022-11-10T14:06:09.107Z,5.75
2022-11-10T14:08:23.914Z,5.28
2022-11-10T14:11:02.004Z,5.40
2022-11-10T14:13:18.954Z,4.85
2022-11-10T14:15:37.533Z,5.47
2022-11-10T14:17:48.388Z,5.32
2022-11-10T14:19:49.974Z,5.55
2022-11-10T14:22:03.429Z,6.78
2022-11-10T14:24:37.231Z,7.10
2022-11-10T14:26:51.812Z,7.43
2022-11-10T14:28:53.279Z,11.77
2022-11-10T14:30:55.799Z,8.80
2022-11-10T14:33:03.980Z,7.82
2022-11-10T14:35:06.772Z,10.32
2022-11-10T14:37:18.303Z,15.40
2022-11-10T14:39:25.339Z,13.07
2022-11-10T14:41:27.076Z,11.25
2022-11-10T14:43:39.221Z,11.43
2022-11-10T14:45:50.831Z,16.00
2022-11-10T14:47:54.908Z,13.18
2022-11-10T14:50:16.699Z,16.02
2022-11-10T14:52:18.261Z,204.57
2022-11-10T14:54:25.016Z,278.13
2022-11-10T14:56:36.878Z,250.98
2022-11-10T14:58:41.096Z,243.65
2022-11-10T15:00:44.518Z,76.30
2022-11-10T15:02:46.142Z,88.55
2022-11-10T15:04:50.979Z,105.07
2022-11-10T15:06:54.864Z,227.90
2022-11-10T15:08:56.451Z,124.47
2022-11-10T15:10:58.200Z,103.35
2022-11-10T15:13:02.094Z,212.80
2022-11-10T15:15:18.528Z,118.35
2022-11-10T15:17:20.238Z,552.80
2022-11-10T15:19:30.632Z,217.85
2022-11-10T15:21:34.164Z,286.15
2022-11-10T15:23:40.873Z,269.30
2022-11-10T15:25:42.462Z,398.02
2022-11-10T15:28:15.184Z,183.40
2022-11-10T15:30:25.333Z,246.55
2022-11-10T15:32:41.875Z,163.73
2022-11-10T15:34:45.743Z,79.57
2022-11-10T15:36:47.372Z,147.50
2022-11-10T15:39:02.169Z,221.32
2022-11-10T15:41:26.618Z,194.40
2022-11-10T15:43:28.844Z,76.30
2022-11-10T15:45:30.327Z,46.50
2022-11-10T15:47:32.066Z,47.42
2022-11-10T15:49:38.066Z,86.15
2022-11-10T15:51:39.580Z,129.57
2022-11-10T15:53:44.316Z,284.27
2022-11-10T15:55:45.941Z,179.98
2022-11-10T15:57:47.451Z,156.52
2022-11-10T15:59:48.920Z,118.68
2022-11-10T16:01:50.795Z,95.47
2022-11-10T16:03:52.416Z,89.82
2022-11-10T16:05:53.969Z,90.10
2022-11-10T16:07:55.455Z,106.38
2022-11-10T16:09:56.956Z,112.05
2022-11-10T16:11:58.767Z,122.63
2022-11-10T16:14:01.905Z,73.68
2022-11-10T16:16:03.667Z,53.13
2022-11-10T16:18:13.957Z,44.08
2022-11-10T16:20:15.676Z,83.35
2022-11-10T16:22:17.177Z,103.65
2022-11-10T16:24:18.671Z,111.15
2022-11-10T16:26:23.332Z,137.23
2022-11-10T16:28:27.015Z,144.48
2022-11-10T16:30:28.752Z,100.20
2022-11-10T16:32:30.229Z,122.18
2022-11-10T16:34:31.734Z,119.07
2022-11-10T16:36:34.316Z,78.13
2022-11-10T16:38:35.808Z,66.55
2022-11-10T16:40:37.608Z,53.85
2022-11-10T16:42:39.096Z,47.53
2022-11-10T16:44:42.586Z,41.60
2022-11-10T16:46:47.518Z,93.30
2022-11-10T16:48:52.608Z,45.55
2022-11-10T16:50:57.588Z,61.90
2022-11-10T16:53:01.994Z,53.22
2022-11-10T16:55:03.989Z,51.92
2022-11-10T16:57:16.089Z,44.00
2022-11-10T16:59:17.566Z,46.50
2022-11-10T17:01:29.697Z,111.80
2022-11-10T17:03:42.133Z,67.45
2022-11-10T17:05:44.007Z,51.97
2022-11-10T17:07:45.620Z,75.10
2022-11-10T17:09:47.074Z,56.42
2022-11-10T17:11:48.588Z,93.90
2022-11-10T17:13:50.032Z,62.67
2022-11-10T17:16:05.322Z,61.97
2022-11-10T17:18:07.306Z,85.55
2022-11-10T17:20:18.291Z,111.88
2022-11-10T17:22:21.588Z,80.95
2022-11-10T17:24:23.771Z,73.75
2022-11-10T17:26:25.264Z,132.75
2022-11-10T17:28:26.757Z,73.32
2022-11-10T17:30:28.498Z,65.80
2022-11-10T17:33:02.565Z,54.03
2022-11-10T17:34:51.491Z,91.70
2022-11-10T17:36:52.977Z,45.20
2022-11-10T17:38:54.495Z,48.17
2022-11-10T17:40:56.237Z,34.85
2022-11-10T17:42:57.698Z,52.42
2022-11-10T17:44:59.213Z,86.22
2022-11-10T17:47:00.659Z,100.78
2022-11-10T17:49:03.323Z,115.72
2022-11-10T17:51:09.847Z,103.10
2022-11-10T17:53:25.151Z,99.15
2022-11-10T17:55:33.790Z,54.55
2022-11-10T17:57:35.827Z,44.30
2022-11-10T17:59:37.333Z,40.33
2022-11-10T18:01:38.965Z,52.72
2022-11-10T18:03:40.650Z,43.72
2022-11-10T18:05:42.792Z,63.47
2022-11-10T18:07:44.705Z,58.00
2022-11-10T18:09:47.093Z,69.72
2022-11-10T18:11:48.574Z,53.80
2022-11-10T18:13:50.153Z,61.08
2022-11-10T18:15:54.331Z,45.55
2022-11-10T18:18:00.047Z,35.05
2022-11-10T18:20:03.661Z,36.55
2022-11-10T18:22:05.187Z,50.30
2022-11-10T18:24:06.772Z,46.58
2022-11-10T18:26:09.053Z,49.47
2022-11-10T18:28:14.368Z,44.53
2022-11-10T18:30:17.061Z,51.88
2022-11-10T18:32:18.562Z,30.65
2022-11-10T18:34:20.155Z,44.20
2022-11-10T18:36:21.898Z,65.75
2022-11-10T18:38:23.366Z,122.18
2022-11-10T18:40:25.207Z,122.45
2022-11-10T18:42:28.672Z,96.95
2022-11-10T18:44:30.927Z,82.57
2022-11-10T18:46:32.447Z,74.43
2022-11-10T18:48:37.281Z,57.33
2022-11-10T18:50:39.247Z,81.57
2022-11-10T18:52:40.739Z,82.55
2022-11-10T18:54:42.296Z,80.10
2022-11-10T18:56:43.798Z,71.80
2022-11-10T18:58:51.177Z,71.57
2022-11-10T19:01:08.915Z,74.53
2022-11-10T19:03:10.564Z,71.88
2022-11-10T19:05:12.019Z,65.25
2022-11-10T19:07:13.585Z,72.13
2022-11-10T19:09:15.279Z,82.95
2022-11-10T19:11:19.104Z,79.70
2022-11-10T19:13:21.289Z,93.85
2022-11-10T19:15:22.912Z,95.88
2022-11-10T19:17:24.447Z,100.28
2022-11-10T19:19:25.987Z,139.23
2022-11-10T19:21:27.786Z,108.65
2022-11-10T19:23:29.259Z,125.75
2022-11-10T19:25:31.257Z,108.22
2022-11-10T19:27:32.798Z,80.43
2022-11-10T19:29:34.327Z,88.80
2022-11-10T19:31:35.791Z,85.10
2022-11-10T19:33:40.414Z,80.47
2022-11-10T19:35:42.472Z,112.70
2022-11-10T19:37:44.437Z,97.43
2022-11-10T19:39:46.025Z,78.30
2022-11-10T19:41:47.569Z,81.47
2022-11-10T19:43:49.099Z,100.30
2022-11-10T19:45:50.894Z,81.38
2022-11-10T19:47:52.355Z,86.95
2022-11-10T19:49:53.808Z,80.90
2022-11-10T19:51:55.630Z,65.30
2022-11-10T19:54:01.525Z,71.68
2022-11-10T19:56:06.078Z,66.70
2022-11-10T19:58:08.468Z,61.03
2022-11-10T20:00:12.459Z,61.42
2022-11-10T20:02:13.951Z,69.03
2022-11-10T20:04:15.500Z,66.35
2022-11-10T20:06:21.279Z,63.08
2022-11-10T20:08:22.759Z,69.57
2022-11-10T20:10:24.353Z,57.03
2022-11-10T20:12:25.835Z,61.13
2022-11-10T20:14:27.881Z,50.08
2022-11-10T20:16:29.426Z,51.15
2022-11-10T20:18:31.155Z,48.83
2022-11-10T20:20:32.700Z,55.70
2022-11-10T20:22:34.296Z,71.13
2022-11-10T20:24:36.137Z,57.72
2022-11-10T20:26:37.657Z,59.85
2022-11-10T20:28:40.535Z,50.05
2022-11-10T20:30:44.409Z,46.75
2022-11-10T20:32:45.883Z,46.28
2022-11-10T20:34:47.357Z,44.13
2022-11-10T20:36:48.886Z,40.78
2022-11-10T20:38:51.031Z,41.70
2022-11-10T20:41:01.799Z,41.88
2022-11-10T20:43:03.544Z,39.97
2022-11-10T20:45:06.056Z,37.78
2022-11-10T20:47:07.650Z,37.97
2022-11-10T20:49:09.191Z,48.90
2022-11-10T20:51:13.308Z,51.60
2022-11-10T20:53:14.779Z,50.08
2022-11-10T20:55:18.556Z,147.70
2022-11-10T20:57:20.207Z,84.43
2022-11-10T20:59:21.703Z,68.18
2022-11-10T21:01:23.626Z,75.32
2022-11-10T21:03:25.488Z,51.67
2022-11-10T21:05:27.179Z,54.85
2022-11-10T21:07:28.677Z,73.60
2022-11-10T21:09:30.607Z,46.75
2022-11-10T21:11:51.085Z,45.17
2022-11-10T21:13:52.540Z,45.85
2022-11-10T21:15:56.424Z,56.03
2022-11-10T21:17:57.982Z,52.25
2022-11-10T21:19:59.533Z,48.03
2022-11-10T21:22:01.604Z,53.30
2022-11-10T21:24:04.761Z,50.85
2022-11-10T21:26:08.447Z,54.80
2022-11-10T21:28:09.966Z,49.97
2022-11-10T21:30:22.636Z,47.63
2022-11-10T21:32:24.821Z,55.97
2022-11-10T21:34:26.345Z,47.83
2022-11-10T21:36:29.452Z,51.00
2022-11-10T21:38:31.147Z,52.88
2022-11-10T21:40:33.197Z,52.25
2022-11-10T21:42:35.709Z,66.05
2022-11-10T21:44:37.494Z,53.90
2022-11-10T21:46:38.954Z,54.10
2022-11-10T21:48:40.499Z,62.85
2022-11-10T21:50:41.997Z,65.38
2022-11-10T21:52:43.595Z,55.20
2022-11-10T21:54:45.126Z,56.88
2022-11-10T21:56:46.640Z,55.67
2022-11-10T21:58:48.132Z,54.15
2022-11-10T22:00:49.587Z,55.45
2022-11-10T22:02:51.073Z,61.92
2022-11-10T22:04:52.622Z,73.95
2022-11-10T22:07:12.713Z,84.35
2022-11-10T22:09:34.305Z,74.72
2022-11-10T22:11:54.388Z,75.50
2022-11-10T22:14:15.012Z,79.53
2022-11-10T22:16:41.666Z,86.05
2022-11-10T22:18:45.139Z,59.80
2022-11-10T22:20:46.655Z,62.03
2022-11-10T22:22:48.237Z,52.63
2022-11-10T22:24:49.719Z,51.72
2022-11-10T22:26:51.213Z,53.50
2022-11-10T22:28:52.707Z,55.78
2022-11-10T22:30:54.195Z,65.03
2022-11-10T22:32:55.751Z,63.58
2022-11-10T22:34:57.221Z,57.78
2022-11-10T22:36:59.680Z,57.88
2022-11-10T22:39:03.760Z,49.75
2022-11-10T22:41:25.151Z,51.15
2022-11-10T22:43:45.207Z,40.35
2022-11-10T22:45:46.734Z,37.08
2022-11-10T22:48:07.089Z,40.10
2022-11-10T22:50:38.583Z,67.15
2022-11-10T22:52:40.032Z,59.55
2022-11-10T22:54:41.475Z,58.85
2022-11-10T22:56:43.883Z,54.35
2022-11-10T22:58:46.292Z,46.65
2022-11-10T23:00:47.809Z,148.90
2022-11-10T23:02:52.078Z,131.85
2022-11-10T23:04:53.589Z,53.38
2022-11-10T23:06:55.079Z,42.50
2022-11-10T23:08:57.652Z,50.30
2022-11-10T23:11:05.952Z,38.45
2022-11-10T23:13:07.436Z,51.90
2022-11-10T23:15:09.247Z,86.65
2022-11-10T23:17:10.726Z,75.18
2022-11-10T23:19:12.244Z,79.13
2022-11-10T23:21:15.852Z,68.57
2022-11-10T23:23:17.314Z,61.10
2022-11-10T23:25:18.760Z,66.22
2022-11-10T23:27:20.207Z,82.80
2022-11-10T23:29:21.734Z,73.13
2022-11-10T23:31:25.608Z,66.97
2022-11-10T23:33:31.453Z,65.00
2022-11-10T23:35:34.043Z,63.13
2022-11-10T23:37:35.492Z,59.75
2022-11-10T23:39:36.920Z,59.05
2022-11-10T23:41:38.384Z,54.20
2022-11-10T23:43:39.956Z,52.38
2022-11-10T23:46:05.294Z,59.08
2022-11-10T23:48:06.744Z,59.22
2022-11-10T23:50:09.042Z,69.25
2022-11-10T23:52:10.544Z,58.00
2022-11-10T23:54:12.046Z,50.38
2022-11-10T23:56:14.194Z,50.47
2022-11-10T23:58:15.655Z,50.20
